Hovedside
METAR-TAF:

METAR-TAF

Lufthavner :

Hans Christian Andersen Airport

Odense, Danmark

breddegrad: 55-29N, lengdegrad: 010-20E, høyde over havet: 17 m

Gjeldene værobservasjon

Denne rapporten ble laget for 24 minutter siden, klokken 09:50 UTC
Vind 14 kt fra Vest-nordvest, skiftende mellom Vest og Nord-nordvest
Temperatur 21°C
Luftfuktighet 49%
Trykk 1015 hPa
Sikt 10 km eller mer
Få skyer i en høyde av 1700 ft
Spredte skyer i en høyde av 22000 ft

METAR: EKOD 200950Z 30014KT 270V330 9999 FEW017 SCT220 21/10 Q1015

Tid: 12:14 (10:14 UTC)

Varsel

Denne rapporten ble laget for 1 time og 12 minutter siden, klokken 09:02 UTC
Varsel gyldig fra 20. klokken 09 UTC til 20. klokken 18 UTC
Vind 10 kt fra Vest-nordvest
Sikt 10 km eller mer
Få skyer i en høyde av 3000 ft

TAF: EKOD 200902Z 2009/2018 30010KT 9999 FEW030

Værobservasjoner og værvarsel for over 4000 flyplasser (METAR- og TAF-rapporter).

Tilgjengelige stasjoner er representert av de røde og gule prikkene på kartet.

Hold musepekeren over prikken for å se navnet på stasjonen.

Klikk så for å se værobservasjoner og -varsler.

For å forandre kartet kan du klikke på den grønne knappen med svart kryss for å zoome inn, på den grønne knappen med strek for å zoome ut, eller på de grønne pilene for å se tilstøtende kart.


METAR-TAF: